Grove Hall, Massachusetts
Current Conditions -  °F | °C
As of 11:40 PM on Wednesday 22 Oct 2014 (Local Time) from KBOS Reporting Station
Heavy Rain Heavy Rain  
Wind Chill: 50°   Ceiling: 1000
Heat Index: 50°   Visibility: 2mi
Dew Point: 50°   Wind: 33mph
Humidity: 100%   Direction: 30°NNE
Pressure: 29.78"   Gusts: 49mph
Location:  42.3078°N, 71.0835°W
Report Text: KBOS 230340Z 03029G43KT 2SM R04R/6000VP6000FT +RA BR OVC010 10/10 A2978 RMK AO2 PK WND 03044/0258 P0017
Loading
Personal Weather Stations






























Interactive Weather Map
Tropical Storm Tracking
New forecast layout! Learn more

10-Day Weather Forecast

Advertisements
Track Severe Weather on mobile